sensor_id;sensor_type;location;lat;lon;timestamp;P1;durP1;ratioP1;P2;durP2;ratioP2
20022;SDS011;10172;42.054;24.546;2023-04-03T00:00:30;0.50;;;0.32;;
20022;SDS011;10172;42.054;24.546;2023-04-03T00:02:56;0.90;;;0.50;;
20022;SDS011;10172;42.054;24.546;2023-04-03T00:05:22;0.57;;;0.45;;
20022;SDS011;10172;42.054;24.546;2023-04-03T00:07:47;2.13;;;0.50;;
20022;SDS011;10172;42.054;24.546;2023-04-03T00:10:14;0.38;;;0.35;;
20022;SDS011;10172;42.054;24.546;2023-04-03T00:12:40;0.45;;;0.40;;
20022;SDS011;10172;42.054;24.546;2023-04-03T00:15:06;0.77;;;0.55;;
20022;SDS011;10172;42.054;24.546;2023-04-03T00:17:32;0.40;;;0.40;;
20022;SDS011;10172;42.054;24.546;2023-04-03T00:19:58;0.60;;;0.40;;
20022;SDS011;10172;42.054;24.546;2023-04-03T00:22:23;0.30;;;0.30;;
20022;SDS011;10172;42.054;24.546;2023-04-03T00:24:49;0.80;;;0.40;;
20022;SDS011;10172;42.054;24.546;2023-04-03T00:27:14;0.50;;;0.50;;
20022;SDS011;10172;42.054;24.546;2023-04-03T00:29:40;0.85;;;0.47;;
20022;SDS011;10172;42.054;24.546;2023-04-03T00:32:06;0.40;;;0.40;;
20022;SDS011;10172;42.054;24.546;2023-04-03T00:34:31;1.65;;;0.50;;
20022;SDS011;10172;42.054;24.546;2023-04-03T00:36:57;0.77;;;0.50;;
20022;SDS011;10172;42.054;24.546;2023-04-03T00:39:22;1.38;;;0.52;;
20022;SDS011;10172;42.054;24.546;2023-04-03T00:41:48;0.45;;;0.45;;
20022;SDS011;10172;42.054;24.546;2023-04-03T00:44:20;0.80;;;0.50;;
20022;SDS011;10172;42.054;24.546;2023-04-03T00:46:46;0.30;;;0.30;;
20022;SDS011;10172;42.054;24.546;2023-04-03T00:49:11;0.45;;;0.45;;
20022;SDS011;10172;42.054;24.546;2023-04-03T00:51:37;0.52;;;0.38;;
20022;SDS011;10172;42.054;24.546;2023-04-03T00:54:03;0.85;;;0.60;;
20022;SDS011;10172;42.054;24.546;2023-04-03T00:56:32;0.80;;;0.47;;
20022;SDS011;10172;42.054;24.546;2023-04-03T01:01:26;0.40;;;0.40;;
20022;SDS011;10172;42.054;24.546;2023-04-03T01:03:53;1.17;;;0.50;;
20022;SDS011;10172;42.054;24.546;2023-04-03T01:06:26;2.13;;;0.40;;
20022;SDS011;10172;42.054;24.546;2023-04-03T01:08:56;0.80;;;0.52;;
20022;SDS011;10172;42.054;24.546;2023-04-03T01:11:21;0.30;;;0.30;;
20022;SDS011;10172;42.054;24.546;2023-04-03T01:13:47;2.75;;;0.63;;
20022;SDS011;10172;42.054;24.546;2023-04-03T01:16:12;0.50;;;0.40;;
20022;SDS011;10172;42.054;24.546;2023-04-03T01:18:39;3.00;;;0.60;;
20022;SDS011;10172;42.054;24.546;2023-04-03T01:26:48;1.65;;;0.47;;
20022;SDS011;10172;42.054;24.546;2023-04-03T01:29:15;0.40;;;0.40;;
20022;SDS011;10172;42.054;24.546;2023-04-03T01:31:45;0.82;;;0.40;;
20022;SDS011;10172;42.054;24.546;2023-04-03T01:34:18;0.55;;;0.50;;
20022;SDS011;10172;42.054;24.546;2023-04-03T01:36:44;0.32;;;0.30;;
20022;SDS011;10172;42.054;24.546;2023-04-03T01:39:10;1.48;;;0.52;;
20022;SDS011;10172;42.054;24.546;2023-04-03T01:41:36;1.02;;;0.50;;
20022;SDS011;10172;42.054;24.546;2023-04-03T01:44:01;0.63;;;0.40;;
20022;SDS011;10172;42.054;24.546;2023-04-03T01:46:27;0.80;;;0.63;;
20022;SDS011;10172;42.054;24.546;2023-04-03T01:48:53;0.52;;;0.52;;
20022;SDS011;10172;42.054;24.546;2023-04-03T01:51:18;0.63;;;0.38;;
20022;SDS011;10172;42.054;24.546;2023-04-03T01:53:44;0.70;;;0.40;;
20022;SDS011;10172;42.054;24.546;2023-04-03T01:56:09;0.68;;;0.50;;
20022;SDS011;10172;42.054;24.546;2023-04-03T01:58:35;0.40;;;0.40;;
20022;SDS011;10172;42.054;24.546;2023-04-03T02:01:01;0.40;;;0.40;;
20022;SDS011;10172;42.054;24.546;2023-04-03T02:03:26;0.43;;;0.40;;
20022;SDS011;10172;42.054;24.546;2023-04-03T02:05:52;0.55;;;0.50;;
20022;SDS011;10172;42.054;24.546;2023-04-03T02:08:18;0.38;;;0.38;;
20022;SDS011;10172;42.054;24.546;2023-04-03T02:10:47;1.08;;;0.47;;
20022;SDS011;10172;42.054;24.546;2023-04-03T02:13:13;0.98;;;0.45;;
20022;SDS011;10172;42.054;24.546;2023-04-03T02:15:40;0.55;;;0.50;;
20022;SDS011;10172;42.054;24.546;2023-04-03T02:18:05;0.45;;;0.40;;
20022;SDS011;10172;42.054;24.546;2023-04-03T02:20:31;0.50;;;0.50;;
20022;SDS011;10172;42.054;24.546;2023-04-03T02:22:58;0.63;;;0.50;;
20022;SDS011;10172;42.054;24.546;2023-04-03T02:25:23;0.43;;;0.40;;
20022;SDS011;10172;42.054;24.546;2023-04-03T02:27:49;0.40;;;0.40;;
20022;SDS011;10172;42.054;24.546;2023-04-03T02:30:15;0.47;;;0.40;;
20022;SDS011;10172;42.054;24.546;2023-04-03T02:32:41;1.67;;;0.70;;
20022;SDS011;10172;42.054;24.546;2023-04-03T02:35:08;1.40;;;0.50;;
20022;SDS011;10172;42.054;24.546;2023-04-03T02:37:34;1.45;;;0.55;;
20022;SDS011;10172;42.054;24.546;2023-04-03T02:39:59;0.85;;;0.50;;
20022;SDS011;10172;42.054;24.546;2023-04-03T02:42:25;0.63;;;0.43;;
20022;SDS011;10172;42.054;24.546;2023-04-03T02:44:51;0.70;;;0.50;;
20022;SDS011;10172;42.054;24.546;2023-04-03T02:47:17;1.65;;;0.50;;
20022;SDS011;10172;42.054;24.546;2023-04-03T02:49:42;1.27;;;0.70;;
20022;SDS011;10172;42.054;24.546;2023-04-03T02:52:11;0.70;;;0.40;;
20022;SDS011;10172;42.054;24.546;2023-04-03T02:54:37;0.40;;;0.40;;
20022;SDS011;10172;42.054;24.546;2023-04-03T02:57:03;0.70;;;0.45;;
20022;SDS011;10172;42.054;24.546;2023-04-03T02:59:29;0.60;;;0.45;;
20022;SDS011;10172;42.054;24.546;2023-04-03T03:01:54;0.77;;;0.65;;
20022;SDS011;10172;42.054;24.546;2023-04-03T03:04:20;2.00;;;0.70;;
20022;SDS011;10172;42.054;24.546;2023-04-03T03:06:46;1.98;;;0.90;;
20022;SDS011;10172;42.054;24.546;2023-04-03T03:09:12;0.75;;;0.50;;
20022;SDS011;10172;42.054;24.546;2023-04-03T03:11:38;2.53;;;0.65;;
20022;SDS011;10172;42.054;24.546;2023-04-03T03:14:04;2.53;;;0.80;;
20022;SDS011;10172;42.054;24.546;2023-04-03T03:16:30;1.27;;;0.70;;
20022;SDS011;10172;42.054;24.546;2023-04-03T03:18:55;0.95;;;0.52;;
20022;SDS011;10172;42.054;24.546;2023-04-03T03:21:21;1.05;;;0.52;;
20022;SDS011;10172;42.054;24.546;2023-04-03T03:23:46;0.57;;;0.50;;
20022;SDS011;10172;42.054;24.546;2023-04-03T03:26:12;0.50;;;0.50;;
20022;SDS011;10172;42.054;24.546;2023-04-03T03:28:38;1.10;;;0.43;;
20022;SDS011;10172;42.054;24.546;2023-04-03T03:31:05;3.50;;;0.55;;
20022;SDS011;10172;42.054;24.546;2023-04-03T03:33:31;0.40;;;0.40;;
20022;SDS011;10172;42.054;24.546;2023-04-03T03:35:57;0.75;;;0.52;;
20022;SDS011;10172;42.054;24.546;2023-04-03T03:38:22;2.40;;;0.70;;
20022;SDS011;10172;42.054;24.546;2023-04-03T03:40:49;0.63;;;0.57;;
20022;SDS011;10172;42.054;24.546;2023-04-03T03:43:15;1.48;;;0.52;;
20022;SDS011;10172;42.054;24.546;2023-04-03T03:45:41;0.32;;;0.32;;
20022;SDS011;10172;42.054;24.546;2023-04-03T03:48:07;0.70;;;0.50;;
20022;SDS011;10172;42.054;24.546;2023-04-03T03:50:32;1.35;;;0.85;;
20022;SDS011;10172;42.054;24.546;2023-04-03T03:52:58;1.33;;;0.80;;
20022;SDS011;10172;42.054;24.546;2023-04-03T03:55:24;0.75;;;0.47;;
20022;SDS011;10172;42.054;24.546;2023-04-03T03:57:50;2.15;;;1.00;;
20022;SDS011;10172;42.054;24.546;2023-04-03T04:00:16;0.70;;;0.57;;
20022;SDS011;10172;42.054;24.546;2023-04-03T04:02:41;0.85;;;0.73;;
20022;SDS011;10172;42.054;24.546;2023-04-03T04:05:07;0.82;;;0.77;;
20022;SDS011;10172;42.054;24.546;2023-04-03T04:07:33;0.55;;;0.50;;
20022;SDS011;10172;42.054;24.546;2023-04-03T04:09:58;1.08;;;0.88;;
20022;SDS011;10172;42.054;24.546;2023-04-03T04:12:24;1.20;;;0.70;;
20022;SDS011;10172;42.054;24.546;2023-04-03T04:14:49;0.85;;;0.70;;
20022;SDS011;10172;42.054;24.546;2023-04-03T04:17:15;1.30;;;0.80;;
20022;SDS011;10172;42.054;24.546;2023-04-03T04:19:40;2.25;;;0.82;;
20022;SDS011;10172;42.054;24.546;2023-04-03T04:22:06;0.80;;;0.60;;
20022;SDS011;10172;42.054;24.546;2023-04-03T04:24:31;0.82;;;0.57;;
20022;SDS011;10172;42.054;24.546;2023-04-03T04:26:57;0.40;;;0.40;;
20022;SDS011;10172;42.054;24.546;2023-04-03T04:29:22;0.32;;;0.32;;
20022;SDS011;10172;42.054;24.546;2023-04-03T04:31:48;0.75;;;0.40;;
20022;SDS011;10172;42.054;24.546;2023-04-03T04:34:13;0.80;;;0.50;;
20022;SDS011;10172;42.054;24.546;2023-04-03T04:36:39;0.40;;;0.40;;
20022;SDS011;10172;42.054;24.546;2023-04-03T04:39:05;1.15;;;0.50;;
20022;SDS011;10172;42.054;24.546;2023-04-03T04:41:31;1.40;;;0.43;;
20022;SDS011;10172;42.054;24.546;2023-04-03T04:43:57;0.50;;;0.50;;
20022;SDS011;10172;42.054;24.546;2023-04-03T04:46:23;0.43;;;0.40;;
20022;SDS011;10172;42.054;24.546;2023-04-03T04:48:48;0.65;;;0.50;;
20022;SDS011;10172;42.054;24.546;2023-04-03T04:51:14;0.73;;;0.50;;
20022;SDS011;10172;42.054;24.546;2023-04-03T04:53:40;1.05;;;0.60;;
20022;SDS011;10172;42.054;24.546;2023-04-03T04:56:06;0.38;;;0.38;;
20022;SDS011;10172;42.054;24.546;2023-04-03T04:58:32;1.20;;;0.50;;
20022;SDS011;10172;42.054;24.546;2023-04-03T05:01:01;34.53;;;19.25;;
20022;SDS011;10172;42.054;24.546;2023-04-03T05:03:31;6.88;;;2.38;;
20022;SDS011;10172;42.054;24.546;2023-04-03T05:05:57;0.98;;;0.80;;
20022;SDS011;10172;42.054;24.546;2023-04-03T05:08:23;1.27;;;0.68;;
20022;SDS011;10172;42.054;24.546;2023-04-03T05:10:48;3.20;;;1.08;;
20022;SDS011;10172;42.054;24.546;2023-04-03T05:13:14;0.57;;;0.50;;
20022;SDS011;10172;42.054;24.546;2023-04-03T05:15:40;1.23;;;0.47;;
20022;SDS011;10172;42.054;24.546;2023-04-03T05:18:05;1.17;;;0.50;;
20022;SDS011;10172;42.054;24.546;2023-04-03T05:20:31;0.60;;;0.50;;
20022;SDS011;10172;42.054;24.546;2023-04-03T05:22:58;0.60;;;0.40;;
20022;SDS011;10172;42.054;24.546;2023-04-03T05:25:23;0.55;;;0.40;;
20022;SDS011;10172;42.054;24.546;2023-04-03T05:27:49;0.50;;;0.50;;
20022;SDS011;10172;42.054;24.546;2023-04-03T05:30:15;2.67;;;1.00;;
20022;SDS011;10172;42.054;24.546;2023-04-03T05:32:41;0.73;;;0.60;;
20022;SDS011;10172;42.054;24.546;2023-04-03T05:35:07;3.30;;;0.90;;
20022;SDS011;10172;42.054;24.546;2023-04-03T05:37:33;0.47;;;0.43;;
20022;SDS011;10172;42.054;24.546;2023-04-03T05:39:59;1.35;;;0.80;;
20022;SDS011;10172;42.054;24.546;2023-04-03T05:42:25;0.75;;;0.57;;
20022;SDS011;10172;42.054;24.546;2023-04-03T05:44:51;0.55;;;0.55;;
20022;SDS011;10172;42.054;24.546;2023-04-03T05:47:16;1.02;;;0.60;;
20022;SDS011;10172;42.054;24.546;2023-04-03T05:49:43;1.20;;;0.40;;
20022;SDS011;10172;42.054;24.546;2023-04-03T05:52:29;1.38;;;0.50;;
20022;SDS011;10172;42.054;24.546;2023-04-03T05:54:58;1.08;;;0.50;;
20022;SDS011;10172;42.054;24.546;2023-04-03T05:57:23;0.77;;;0.43;;
20022;SDS011;10172;42.054;24.546;2023-04-03T05:59:49;1.02;;;0.50;;
20022;SDS011;10172;42.054;24.546;2023-04-03T06:02:16;0.52;;;0.52;;
20022;SDS011;10172;42.054;24.546;2023-04-03T06:04:43;1.77;;;0.40;;
20022;SDS011;10172;42.054;24.546;2023-04-03T06:07:13;1.38;;;1.00;;
20022;SDS011;10172;42.054;24.546;2023-04-03T06:09:41;6.07;;;2.00;;
20022;SDS011;10172;42.054;24.546;2023-04-03T06:12:07;7.80;;;3.70;;
20022;SDS011;10172;42.054;24.546;2023-04-03T06:14:32;10.02;;;3.45;;
20022;SDS011;10172;42.054;24.546;2023-04-03T06:16:58;5.20;;;2.63;;
20022;SDS011;10172;42.054;24.546;2023-04-03T06:19:24;7.18;;;2.97;;
20022;SDS011;10172;42.054;24.546;2023-04-03T06:21:51;7.50;;;2.50;;
20022;SDS011;10172;42.054;24.546;2023-04-03T06:24:16;5.22;;;2.75;;
20022;SDS011;10172;42.054;24.546;2023-04-03T06:26:43;4.10;;;2.15;;
20022;SDS011;10172;42.054;24.546;2023-04-03T06:29:08;3.05;;;1.77;;
20022;SDS011;10172;42.054;24.546;2023-04-03T06:31:34;3.47;;;1.67;;
20022;SDS011;10172;42.054;24.546;2023-04-03T06:34:01;3.63;;;1.20;;
20022;SDS011;10172;42.054;24.546;2023-04-03T06:36:28;4.28;;;2.55;;
20022;SDS011;10172;42.054;24.546;2023-04-03T06:38:54;6.82;;;2.33;;
20022;SDS011;10172;42.054;24.546;2023-04-03T06:41:20;3.13;;;1.42;;
20022;SDS011;10172;42.054;24.546;2023-04-03T06:43:46;2.38;;;1.50;;
20022;SDS011;10172;42.054;24.546;2023-04-03T06:46:14;1.30;;;1.00;;
20022;SDS011;10172;42.054;24.546;2023-04-03T06:48:45;1.77;;;0.82;;
20022;SDS011;10172;42.054;24.546;2023-04-03T06:51:27;1.90;;;1.02;;
20022;SDS011;10172;42.054;24.546;2023-04-03T06:53:55;3.08;;;1.10;;
20022;SDS011;10172;42.054;24.546;2023-04-03T06:56:22;2.05;;;0.90;;
20022;SDS011;10172;42.054;24.546;2023-04-03T06:58:48;2.30;;;0.80;;
20022;SDS011;10172;42.054;24.546;2023-04-03T07:01:16;0.80;;;0.80;;
20022;SDS011;10172;42.054;24.546;2023-04-03T07:03:42;1.90;;;1.20;;
20022;SDS011;10172;42.054;24.546;2023-04-03T07:06:09;2.60;;;0.98;;
20022;SDS011;10172;42.054;24.546;2023-04-03T07:08:37;1.75;;;1.00;;
20022;SDS011;10172;42.054;24.546;2023-04-03T07:11:03;5.45;;;1.58;;
20022;SDS011;10172;42.054;24.546;2023-04-03T07:13:28;11.43;;;3.97;;
20022;SDS011;10172;42.054;24.546;2023-04-03T07:15:54;11.15;;;3.70;;
20022;SDS011;10172;42.054;24.546;2023-04-03T07:18:20;8.13;;;3.20;;
20022;SDS011;10172;42.054;24.546;2023-04-03T07:20:46;2.95;;;2.05;;
20022;SDS011;10172;42.054;24.546;2023-04-03T07:23:12;4.18;;;2.42;;
20022;SDS011;10172;42.054;24.546;2023-04-03T07:25:42;2.33;;;1.30;;
20022;SDS011;10172;42.054;24.546;2023-04-03T07:28:09;3.15;;;1.00;;
20022;SDS011;10172;42.054;24.546;2023-04-03T07:30:34;3.20;;;1.50;;
20022;SDS011;10172;42.054;24.546;2023-04-03T07:33:00;2.15;;;1.15;;
20022;SDS011;10172;42.054;24.546;2023-04-03T07:35:26;3.25;;;1.38;;
20022;SDS011;10172;42.054;24.546;2023-04-03T07:37:52;1.75;;;0.90;;
20022;SDS011;10172;42.054;24.546;2023-04-03T07:40:18;1.70;;;1.08;;
20022;SDS011;10172;42.054;24.546;2023-04-03T07:42:43;3.17;;;1.33;;
20022;SDS011;10172;42.054;24.546;2023-04-03T07:45:09;3.65;;;1.10;;
20022;SDS011;10172;42.054;24.546;2023-04-03T07:47:35;1.50;;;0.90;;
20022;SDS011;10172;42.054;24.546;2023-04-03T07:50:01;1.10;;;0.85;;
20022;SDS011;10172;42.054;24.546;2023-04-03T07:52:26;3.08;;;0.98;;
20022;SDS011;10172;42.054;24.546;2023-04-03T07:54:52;2.20;;;1.20;;
20022;SDS011;10172;42.054;24.546;2023-04-03T07:57:17;2.45;;;1.20;;
20022;SDS011;10172;42.054;24.546;2023-04-03T07:59:42;5.05;;;1.30;;
20022;SDS011;10172;42.054;24.546;2023-04-03T08:02:11;4.38;;;1.25;;
20022;SDS011;10172;42.054;24.546;2023-04-03T08:04:37;1.33;;;0.82;;
20022;SDS011;10172;42.054;24.546;2023-04-03T08:07:02;1.35;;;0.90;;
20022;SDS011;10172;42.054;24.546;2023-04-03T08:09:28;2.63;;;1.30;;
20022;SDS011;10172;42.054;24.546;2023-04-03T08:11:53;3.35;;;1.48;;
20022;SDS011;10172;42.054;24.546;2023-04-03T08:14:19;2.38;;;1.35;;
20022;SDS011;10172;42.054;24.546;2023-04-03T08:16:46;4.30;;;1.27;;
20022;SDS011;10172;42.054;24.546;2023-04-03T08:19:13;3.92;;;1.55;;
20022;SDS011;10172;42.054;24.546;2023-04-03T08:21:40;3.90;;;1.58;;
20022;SDS011;10172;42.054;24.546;2023-04-03T08:24:09;1.98;;;1.15;;
20022;SDS011;10172;42.054;24.546;2023-04-03T08:26:35;2.75;;;1.38;;
20022;SDS011;10172;42.054;24.546;2023-04-03T08:29:01;1.85;;;1.30;;
20022;SDS011;10172;42.054;24.546;2023-04-03T08:31:26;3.78;;;1.30;;
20022;SDS011;10172;42.054;24.546;2023-04-03T08:33:52;2.15;;;1.23;;
20022;SDS011;10172;42.054;24.546;2023-04-03T08:36:22;2.15;;;1.40;;
20022;SDS011;10172;42.054;24.546;2023-04-03T08:38:52;2.28;;;1.40;;
20022;SDS011;10172;42.054;24.546;2023-04-03T08:47:07;4.60;;;1.80;;
20022;SDS011;10172;42.054;24.546;2023-04-03T08:52:41;3.72;;;1.63;;
20022;SDS011;10172;42.054;24.546;2023-04-03T08:55:24;6.22;;;2.45;;
20022;SDS011;10172;42.054;24.546;2023-04-03T08:58:00;2.92;;;2.03;;
20022;SDS011;10172;42.054;24.546;2023-04-03T09:03:18;3.53;;;1.42;;
20022;SDS011;10172;42.054;24.546;2023-04-03T09:05:53;2.92;;;1.45;;
20022;SDS011;10172;42.054;24.546;2023-04-03T09:10:58;2.75;;;1.50;;
20022;SDS011;10172;42.054;24.546;2023-04-03T09:13:46;2.85;;;1.30;;
20022;SDS011;10172;42.054;24.546;2023-04-03T09:16:25;1.88;;;1.13;;
20022;SDS011;10172;42.054;24.546;2023-04-03T09:21:46;3.22;;;1.55;;
20022;SDS011;10172;42.054;24.546;2023-04-03T09:24:12;2.78;;;1.73;;
20022;SDS011;10172;42.054;24.546;2023-04-03T09:26:45;7.57;;;1.80;;
20022;SDS011;10172;42.054;24.546;2023-04-03T09:29:17;3.55;;;1.60;;
20022;SDS011;10172;42.054;24.546;2023-04-03T09:31:46;2.75;;;1.60;;
20022;SDS011;10172;42.054;24.546;2023-04-03T09:34:21;1.92;;;1.40;;
20022;SDS011;10172;42.054;24.546;2023-04-03T09:36:56;2.03;;;1.30;;
20022;SDS011;10172;42.054;24.546;2023-04-03T09:39:25;2.33;;;1.52;;
20022;SDS011;10172;42.054;24.546;2023-04-03T09:42:13;2.97;;;1.42;;
20022;SDS011;10172;42.054;24.546;2023-04-03T09:45:00;4.20;;;1.52;;
20022;SDS011;10172;42.054;24.546;2023-04-03T09:47:29;2.47;;;1.75;;
20022;SDS011;10172;42.054;24.546;2023-04-03T09:52:54;5.18;;;2.80;;
20022;SDS011;10172;42.054;24.546;2023-04-03T09:55:20;3.30;;;2.00;;
20022;SDS011;10172;42.054;24.546;2023-04-03T09:57:58;7.28;;;2.55;;
20022;SDS011;10172;42.054;24.546;2023-04-03T10:00:26;6.88;;;2.08;;
20022;SDS011;10172;42.054;24.546;2023-04-03T10:02:55;5.35;;;1.75;;
20022;SDS011;10172;42.054;24.546;2023-04-03T10:05:31;3.97;;;2.20;;
20022;SDS011;10172;42.054;24.546;2023-04-03T10:10:40;8.70;;;3.50;;
20022;SDS011;10172;42.054;24.546;2023-04-03T10:13:32;6.10;;;3.22;;
20022;SDS011;10172;42.054;24.546;2023-04-03T10:18:42;4.45;;;2.55;;
20022;SDS011;10172;42.054;24.546;2023-04-03T10:23:50;8.52;;;3.72;;
20022;SDS011;10172;42.054;24.546;2023-04-03T10:26:29;4.45;;;2.65;;
20022;SDS011;10172;42.054;24.546;2023-04-03T10:29:21;4.80;;;2.35;;
20022;SDS011;10172;42.054;24.546;2023-04-03T10:32:19;4.22;;;2.60;;
20022;SDS011;10172;42.054;24.546;2023-04-03T10:35:10;5.13;;;2.58;;
20022;SDS011;10172;42.054;24.546;2023-04-03T10:38:15;6.15;;;3.08;;
20022;SDS011;10172;42.054;24.546;2023-04-03T10:40:57;6.53;;;2.90;;
20022;SDS011;10172;42.054;24.546;2023-04-03T10:43:33;7.13;;;3.55;;
20022;SDS011;10172;42.054;24.546;2023-04-03T10:46:27;5.05;;;2.75;;
20022;SDS011;10172;42.054;24.546;2023-04-03T10:49:17;5.72;;;2.97;;
20022;SDS011;10172;42.054;24.546;2023-04-03T10:51:45;4.50;;;2.13;;
20022;SDS011;10172;42.054;24.546;2023-04-03T10:56:55;7.35;;;3.90;;
20022;SDS011;10172;42.054;24.546;2023-04-03T11:02:10;5.70;;;2.50;;
20022;SDS011;10172;42.054;24.546;2023-04-03T11:04:50;17.70;;;6.40;;
20022;SDS011;10172;42.054;24.546;2023-04-03T11:07:23;15.63;;;6.53;;
20022;SDS011;10172;42.054;24.546;2023-04-03T11:09:57;5.18;;;2.72;;
20022;SDS011;10172;42.054;24.546;2023-04-03T11:12:36;4.10;;;2.63;;
20022;SDS011;10172;42.054;24.546;2023-04-03T11:15:11;5.90;;;2.90;;
20022;SDS011;10172;42.054;24.546;2023-04-03T11:17:41;5.78;;;3.15;;
20022;SDS011;10172;42.054;24.546;2023-04-03T11:20:30;8.40;;;4.10;;
20022;SDS011;10172;42.054;24.546;2023-04-03T11:23:19;7.22;;;4.20;;
20022;SDS011;10172;42.054;24.546;2023-04-03T11:25:51;9.80;;;4.85;;
20022;SDS011;10172;42.054;24.546;2023-04-03T11:28:20;7.22;;;3.40;;
20022;SDS011;10172;42.054;24.546;2023-04-03T11:30:59;7.13;;;3.03;;
20022;SDS011;10172;42.054;24.546;2023-04-03T11:36:33;5.80;;;2.90;;
20022;SDS011;10172;42.054;24.546;2023-04-03T11:42:15;3.42;;;2.28;;
20022;SDS011;10172;42.054;24.546;2023-04-03T11:44:50;6.72;;;2.95;;
20022;SDS011;10172;42.054;24.546;2023-04-03T12:13:40;6.03;;;3.17;;
20022;SDS011;10172;42.054;24.546;2023-04-03T12:16:21;6.63;;;3.60;;
20022;SDS011;10172;42.054;24.546;2023-04-03T12:26:47;7.28;;;4.43;;
20022;SDS011;10172;42.054;24.546;2023-04-03T12:29:23;7.65;;;4.45;;
20022;SDS011;10172;42.054;24.546;2023-04-03T12:34:46;10.07;;;4.95;;
20022;SDS011;10172;42.054;24.546;2023-04-03T12:40:37;12.65;;;5.85;;
20022;SDS011;10172;42.054;24.546;2023-04-03T12:48:39;6.88;;;3.13;;
20022;SDS011;10172;42.054;24.546;2023-04-03T12:51:13;12.75;;;6.82;;
20022;SDS011;10172;42.054;24.546;2023-04-03T12:53:42;10.00;;;5.03;;
20022;SDS011;10172;42.054;24.546;2023-04-03T12:56:20;8.30;;;4.18;;
20022;SDS011;10172;42.054;24.546;2023-04-03T12:58:52;13.55;;;7.32;;
20022;SDS011;10172;42.054;24.546;2023-04-03T13:01:23;6.05;;;4.25;;
20022;SDS011;10172;42.054;24.546;2023-04-03T13:03:52;6.85;;;4.90;;
20022;SDS011;10172;42.054;24.546;2023-04-03T13:06:25;7.30;;;4.10;;
20022;SDS011;10172;42.054;24.546;2023-04-03T13:08:54;5.72;;;3.50;;
20022;SDS011;10172;42.054;24.546;2023-04-03T13:11:23;6.78;;;4.53;;
20022;SDS011;10172;42.054;24.546;2023-04-03T13:13:54;6.82;;;3.90;;
20022;SDS011;10172;42.054;24.546;2023-04-03T13:16:24;4.80;;;3.20;;
20022;SDS011;10172;42.054;24.546;2023-04-03T13:18:54;8.77;;;3.78;;
20022;SDS011;10172;42.054;24.546;2023-04-03T13:21:24;8.45;;;4.20;;
20022;SDS011;10172;42.054;24.546;2023-04-03T13:23:58;7.75;;;4.03;;
20022;SDS011;10172;42.054;24.546;2023-04-03T13:26:28;4.90;;;3.60;;
20022;SDS011;10172;42.054;24.546;2023-04-03T13:28:57;7.30;;;3.83;;
20022;SDS011;10172;42.054;24.546;2023-04-03T13:31:29;7.70;;;3.13;;
20022;SDS011;10172;42.054;24.546;2023-04-03T13:36:35;9.55;;;6.57;;
20022;SDS011;10172;42.054;24.546;2023-04-03T13:41:32;6.63;;;3.83;;
20022;SDS011;10172;42.054;24.546;2023-04-03T13:46:43;9.38;;;5.15;;
20022;SDS011;10172;42.054;24.546;2023-04-03T13:52:17;8.88;;;5.50;;
20022;SDS011;10172;42.054;24.546;2023-04-03T13:54:51;5.97;;;4.20;;
20022;SDS011;10172;42.054;24.546;2023-04-03T13:57:19;8.77;;;4.78;;
20022;SDS011;10172;42.054;24.546;2023-04-03T13:59:45;7.65;;;4.43;;
20022;SDS011;10172;42.054;24.546;2023-04-03T14:07:21;19.27;;;10.18;;
20022;SDS011;10172;42.054;24.546;2023-04-03T14:09:47;12.13;;;6.80;;
20022;SDS011;10172;42.054;24.546;2023-04-03T14:14:54;12.88;;;7.43;;
20022;SDS011;10172;42.054;24.546;2023-04-03T14:17:22;15.75;;;7.88;;
20022;SDS011;10172;42.054;24.546;2023-04-03T14:19:49;12.85;;;6.97;;
20022;SDS011;10172;42.054;24.546;2023-04-03T14:22:23;14.65;;;7.35;;
20022;SDS011;10172;42.054;24.546;2023-04-03T14:24:53;19.27;;;9.55;;
20022;SDS011;10172;42.054;24.546;2023-04-03T14:27:20;12.55;;;8.20;;
20022;SDS011;10172;42.054;24.546;2023-04-03T14:29:48;13.13;;;8.88;;
20022;SDS011;10172;42.054;24.546;2023-04-03T14:32:16;15.13;;;11.75;;
20022;SDS011;10172;42.054;24.546;2023-04-03T14:34:43;17.73;;;13.45;;
20022;SDS011;10172;42.054;24.546;2023-04-03T14:37:10;16.35;;;10.85;;
20022;SDS011;10172;42.054;24.546;2023-04-03T14:39:37;11.77;;;8.98;;
20022;SDS011;10172;42.054;24.546;2023-04-03T14:42:02;22.05;;;17.30;;
20022;SDS011;10172;42.054;24.546;2023-04-03T14:44:28;10.93;;;7.95;;
20022;SDS011;10172;42.054;24.546;2023-04-03T14:46:53;19.52;;;14.35;;
20022;SDS011;10172;42.054;24.546;2023-04-03T14:49:22;14.52;;;10.57;;
20022;SDS011;10172;42.054;24.546;2023-04-03T14:51:51;14.73;;;9.90;;
20022;SDS011;10172;42.054;24.546;2023-04-03T14:54:18;11.50;;;9.45;;
20022;SDS011;10172;42.054;24.546;2023-04-03T14:56:50;14.40;;;10.15;;
20022;SDS011;10172;42.054;24.546;2023-04-03T14:59:16;12.43;;;9.02;;
20022;SDS011;10172;42.054;24.546;2023-04-03T15:01:42;11.25;;;8.40;;
20022;SDS011;10172;42.054;24.546;2023-04-03T15:04:15;15.38;;;9.07;;
20022;SDS011;10172;42.054;24.546;2023-04-03T15:06:41;12.60;;;9.35;;
20022;SDS011;10172;42.054;24.546;2023-04-03T15:09:14;15.45;;;10.93;;
20022;SDS011;10172;42.054;24.546;2023-04-03T15:11:44;15.20;;;9.75;;
20022;SDS011;10172;42.054;24.546;2023-04-03T15:14:10;15.65;;;10.80;;
20022;SDS011;10172;42.054;24.546;2023-04-03T15:16:36;15.50;;;11.00;;
20022;SDS011;10172;42.054;24.546;2023-04-03T15:19:01;12.60;;;10.13;;
20022;SDS011;10172;42.054;24.546;2023-04-03T15:21:27;12.63;;;10.15;;
20022;SDS011;10172;42.054;24.546;2023-04-03T15:23:52;13.90;;;10.25;;
20022;SDS011;10172;42.054;24.546;2023-04-03T15:26:18;18.08;;;11.07;;
20022;SDS011;10172;42.054;24.546;2023-04-03T15:28:43;17.80;;;11.85;;
20022;SDS011;10172;42.054;24.546;2023-04-03T15:31:10;18.48;;;11.40;;
20022;SDS011;10172;42.054;24.546;2023-04-03T15:33:36;12.65;;;9.23;;
20022;SDS011;10172;42.054;24.546;2023-04-03T15:36:02;18.55;;;12.82;;
20022;SDS011;10172;42.054;24.546;2023-04-03T15:38:28;17.63;;;12.50;;
20022;SDS011;10172;42.054;24.546;2023-04-03T15:40:54;28.02;;;13.80;;
20022;SDS011;10172;42.054;24.546;2023-04-03T15:43:20;25.33;;;16.35;;
20022;SDS011;10172;42.054;24.546;2023-04-03T15:45:46;22.27;;;13.93;;
20022;SDS011;10172;42.054;24.546;2023-04-03T15:48:12;53.88;;;34.85;;
20022;SDS011;10172;42.054;24.546;2023-04-03T15:50:38;28.42;;;20.08;;
20022;SDS011;10172;42.054;24.546;2023-04-03T15:53:04;11.75;;;8.75;;
20022;SDS011;10172;42.054;24.546;2023-04-03T15:55:31;12.30;;;8.80;;
20022;SDS011;10172;42.054;24.546;2023-04-03T15:57:59;11.48;;;8.75;;
20022;SDS011;10172;42.054;24.546;2023-04-03T16:00:25;13.70;;;10.38;;
20022;SDS011;10172;42.054;24.546;2023-04-03T16:02:52;37.15;;;19.63;;
20022;SDS011;10172;42.054;24.546;2023-04-03T16:05:20;22.52;;;16.35;;
20022;SDS011;10172;42.054;24.546;2023-04-03T16:07:46;18.98;;;15.23;;
20022;SDS011;10172;42.054;24.546;2023-04-03T16:10:12;20.35;;;13.82;;
20022;SDS011;10172;42.054;24.546;2023-04-03T16:12:40;20.65;;;12.90;;
20022;SDS011;10172;42.054;24.546;2023-04-03T16:15:05;30.70;;;19.20;;
20022;SDS011;10172;42.054;24.546;2023-04-03T16:17:32;45.40;;;26.88;;
20022;SDS011;10172;42.054;24.546;2023-04-03T16:19:59;37.47;;;24.35;;
20022;SDS011;10172;42.054;24.546;2023-04-03T16:22:25;36.10;;;20.15;;
20022;SDS011;10172;42.054;24.546;2023-04-03T16:24:52;37.85;;;20.95;;
20022;SDS011;10172;42.054;24.546;2023-04-03T16:27:18;50.72;;;37.33;;
20022;SDS011;10172;42.054;24.546;2023-04-03T16:29:44;18.85;;;13.57;;